Time;durP1;ratioP1;P1;durP2;ratioP2;P2;SDS_P1;SDS_P2;PMS_P1;PMS_P2;Temp;Humidity;BMP_temperature;BMP_pressure;BME280_temperature;BME280_humidity;BME280_pressure;Samples;Min_cycle;Max_cycle;Signal;HPM_P1;HPM_P2
2023/06/07 00:00:37;;;;;;;9.87;5.47;;;18.10;99.90;;;;;;5115088;28;20198;-42
2023/06/07 00:03:09;;;;;;;11.93;5.67;;;18.10;99.90;;;;;;5114917;28;20269;-43
2023/06/07 00:05:38;;;;;;;9.60;5.83;;;18.00;99.90;;;;;;5114904;28;20162;-43
2023/06/07 00:08:05;;;;;;;10.40;5.30;;;18.00;99.90;;;;;;5114866;28;20238;-43
2023/06/07 00:10:32;;;;;;;11.00;5.93;;;18.00;99.90;;;;;;5114475;28;20183;-41
2023/06/07 00:12:58;;;;;;;12.30;6.70;;;17.90;99.90;;;;;;5114412;28;20171;-42
2023/06/07 00:15:24;;;;;;;13.13;6.37;;;17.90;99.90;;;;;;5114674;28;20189;-43
2023/06/07 00:17:49;;;;;;;12.10;6.23;;;17.90;99.90;;;;;;5113558;28;20174;-42
2023/06/07 00:20:15;;;;;;;12.83;6.33;;;17.90;99.90;;;;;;5114221;28;20210;-42
2023/06/07 00:22:41;;;;;;;13.03;6.27;;;17.80;99.90;;;;;;5114195;28;20170;-41
2023/06/07 00:25:08;;;;;;;12.10;6.40;;;17.80;99.90;;;;;;5114161;28;20197;-42
2023/06/07 00:27:34;;;;;;;12.40;7.17;;;17.80;99.90;;;;;;5114411;28;20178;-43
2023/06/07 00:30:00;;;;;;;13.50;6.30;;;17.70;99.90;;;;;;5114174;28;20189;-41
2023/06/07 00:32:25;;;;;;;15.30;6.00;;;17.70;99.90;;;;;;5114374;28;20177;-42
2023/06/07 00:34:51;;;;;;;11.53;6.57;;;17.70;99.90;;;;;;5114027;28;20194;-42
2023/06/07 00:37:16;;;;;;;12.37;6.93;;;17.60;99.90;;;;;;5114249;28;20614;-42
2023/06/07 00:39:42;;;;;;;9.73;6.33;;;17.60;99.90;;;;;;5113964;28;20210;-43
2023/06/07 00:42:08;;;;;;;11.03;6.73;;;17.50;99.90;;;;;;5114210;28;20253;-43
2023/06/07 00:44:33;;;;;;;15.63;6.30;;;17.50;99.90;;;;;;5113857;28;20212;-41
2023/06/07 00:47:00;;;;;;;15.90;7.03;;;17.50;99.90;;;;;;5113991;28;20180;-43
2023/06/07 00:49:26;;;;;;;13.43;6.13;;;17.40;99.90;;;;;;5114129;28;20201;-41
2023/06/07 00:51:52;;;;;;;11.23;6.67;;;17.30;99.90;;;;;;5113867;28;20597;-44
2023/06/07 00:54:19;;;;;;;14.80;6.40;;;17.40;99.90;;;;;;5113760;28;20666;-41
2023/06/07 00:56:49;;;;;;;10.23;5.93;;;17.30;99.90;;;;;;5113740;28;20170;-40
2023/06/07 00:59:16;;;;;;;10.07;5.60;;;17.30;99.90;;;;;;5114864;28;20194;-42
2023/06/07 01:01:44;;;;;;;9.77;6.13;;;17.30;99.90;;;;;;5113758;28;20178;-42
2023/06/07 01:04:10;;;;;;;12.63;6.07;;;17.30;99.90;;;;;;5113951;28;20260;-42
2023/06/07 01:06:37;;;;;;;12.20;5.97;;;17.30;99.90;;;;;;5114230;28;20166;-41
2023/06/07 01:09:06;;;;;;;7.53;5.60;;;17.30;99.90;;;;;;5113669;28;20178;-43
2023/06/07 01:11:33;;;;;;;11.47;5.93;;;17.30;99.90;;;;;;5113652;28;20170;-44
2023/06/07 01:14:01;;;;;;;14.03;6.37;;;17.30;99.90;;;;;;5113648;28;20239;-42
2023/06/07 01:16:26;;;;;;;8.70;5.83;;;17.20;99.90;;;;;;5114227;28;20166;-44
2023/06/07 01:18:53;;;;;;;10.27;5.77;;;17.20;99.90;;;;;;5113782;28;20186;-44
2023/06/07 01:21:19;;;;;;;14.13;6.87;;;17.20;99.90;;;;;;5113792;28;20185;-41
2023/06/07 01:23:45;;;;;;;10.93;5.67;;;17.10;99.90;;;;;;5113432;28;20697;-42
2023/06/07 01:26:11;;;;;;;10.93;6.67;;;17.10;99.90;;;;;;5113539;28;20167;-41
2023/06/07 01:28:44;;;;;;;12.03;6.40;;;17.10;99.90;;;;;;5115723;28;20174;-43
2023/06/07 01:31:12;;;;;;;12.07;6.03;;;17.00;99.90;;;;;;5117629;28;20158;-43
2023/06/07 01:33:38;;;;;;;12.00;6.13;;;17.00;99.90;;;;;;5117472;28;20198;-41
2023/06/07 01:36:05;;;;;;;11.07;6.17;;;17.00;99.90;;;;;;5117482;28;20659;-42
2023/06/07 01:38:33;;;;;;;14.33;6.50;;;16.90;99.90;;;;;;5117373;28;20229;-40
2023/06/07 01:41:00;;;;;;;9.37;5.83;;;16.90;99.90;;;;;;5116878;28;20209;-43
2023/06/07 01:43:26;;;;;;;9.80;5.87;;;16.80;99.90;;;;;;5117578;28;20218;-43
2023/06/07 01:45:53;;;;;;;10.97;6.23;;;16.80;99.90;;;;;;5116081;28;20178;-44
2023/06/07 01:48:19;;;;;;;11.93;5.47;;;16.80;99.90;;;;;;5117210;28;20182;-44
2023/06/07 01:50:45;;;;;;;13.70;5.57;;;16.70;99.90;;;;;;5117520;28;20174;-42
2023/06/07 01:53:10;;;;;;;14.30;6.10;;;16.70;99.90;;;;;;5117120;28;20186;-41
2023/06/07 01:55:37;;;;;;;9.47;5.33;;;16.70;99.90;;;;;;5117771;28;20182;-44
2023/06/07 01:58:14;;;;;;;9.93;6.13;;;16.60;99.90;;;;;;5117261;28;20261;-43
2023/06/07 02:00:57;;;;;;;10.23;5.90;;;16.50;99.90;;;;;;5117227;28;20197;-44
2023/06/07 02:03:37;;;;;;;10.80;6.57;;;16.40;99.90;;;;;;5117378;28;20198;-42
2023/06/07 02:06:07;;;;;;;9.23;6.20;;;16.40;99.90;;;;;;5117304;28;20183;-43
2023/06/07 02:08:37;;;;;;;9.80;6.60;;;16.40;99.90;;;;;;5117682;28;20603;-43
2023/06/07 02:11:04;;;;;;;10.87;6.53;;;16.30;99.90;;;;;;5116930;28;20261;-43
2023/06/07 02:13:34;;;;;;;12.77;6.50;;;16.30;99.90;;;;;;5116831;28;20664;-43
2023/06/07 02:16:04;;;;;;;12.63;6.17;;;16.30;99.90;;;;;;5115680;28;20553;-43
2023/06/07 02:18:31;;;;;;;12.60;6.33;;;16.20;99.90;;;;;;5116702;28;20552;-41
2023/06/07 02:20:56;;;;;;;10.17;5.60;;;16.20;99.90;;;;;;5115313;28;20194;-42
2023/06/07 02:23:22;;;;;;;13.80;6.67;;;16.10;99.90;;;;;;5115377;28;20200;-43
2023/06/07 02:25:48;;;;;;;11.10;6.13;;;16.10;99.90;;;;;;5116990;28;20193;-42
2023/06/07 02:28:14;;;;;;;12.60;6.23;;;16.00;99.90;;;;;;5116982;28;20174;-42
2023/06/07 02:30:39;;;;;;;11.20;6.17;;;16.00;99.90;;;;;;5117199;28;20257;-42
2023/06/07 02:33:06;;;;;;;12.40;6.23;;;15.90;99.90;;;;;;5116665;28;20182;-43
2023/06/07 02:35:32;;;;;;;17.60;6.37;;;15.90;99.90;;;;;;5116422;28;20174;-43
2023/06/07 02:37:58;;;;;;;15.70;6.03;;;15.90;99.90;;;;;;5115243;28;20553;-44
2023/06/07 02:40:23;;;;;;;11.37;6.63;;;15.80;99.90;;;;;;5116216;28;20242;-43
2023/06/07 02:42:49;;;;;;;12.40;6.57;;;15.80;99.90;;;;;;5117107;28;20170;-48
2023/06/07 02:45:15;;;;;;;9.87;6.23;;;15.80;99.90;;;;;;5116699;28;20205;-47
2023/06/07 02:47:41;;;;;;;11.87;6.63;;;15.70;99.90;;;;;;5117153;28;20163;-45
2023/06/07 02:50:08;;;;;;;17.37;6.83;;;15.70;99.90;;;;;;5116365;28;20182;-48
2023/06/07 02:52:34;;;;;;;10.70;6.83;;;15.70;99.90;;;;;;5116691;28;20187;-48
2023/06/07 02:55:00;;;;;;;12.00;6.37;;;15.60;99.90;;;;;;5115958;28;20213;-47
2023/06/07 02:57:26;;;;;;;9.63;5.80;;;15.60;99.90;;;;;;5116361;28;20178;-48
2023/06/07 02:59:56;;;;;;;12.90;5.67;;;15.60;99.90;;;;;;5116253;28;20201;-45
2023/06/07 03:02:21;;;;;;;7.43;5.83;;;15.50;99.90;;;;;;5116232;28;20185;-48
2023/06/07 03:04:48;;;;;;;14.57;6.17;;;15.50;99.90;;;;;;5116094;28;20198;-48
2023/06/07 03:07:13;;;;;;;12.10;6.80;;;15.40;99.90;;;;;;5115906;28;20238;-45
2023/06/07 03:09:39;;;;;;;11.70;6.80;;;15.40;99.90;;;;;;5115999;28;20253;-46
2023/06/07 03:12:06;;;;;;;11.37;5.87;;;15.40;99.90;;;;;;5115699;28;20174;-48
2023/06/07 03:14:32;;;;;;;13.30;6.40;;;15.30;99.90;;;;;;5115854;28;20205;-47
2023/06/07 03:16:58;;;;;;;14.03;6.10;;;15.30;99.90;;;;;;5115674;28;20223;-47
2023/06/07 03:19:24;;;;;;;13.10;5.93;;;15.30;99.90;;;;;;5115874;28;20206;-46
2023/06/07 03:21:52;;;;;;;11.10;6.80;;;15.30;99.90;;;;;;5115661;28;20622;-48
2023/06/07 03:24:18;;;;;;;12.97;5.90;;;15.20;99.90;;;;;;5115850;28;20567;-47
2023/06/07 03:26:43;;;;;;;9.60;6.33;;;15.20;99.90;;;;;;5114465;28;20181;-48
2023/06/07 03:29:09;;;;;;;13.67;7.07;;;15.20;99.90;;;;;;5115789;28;20243;-45
2023/06/07 03:31:35;;;;;;;18.40;6.77;;;15.20;99.90;;;;;;5115412;28;20642;-48
2023/06/07 03:34:01;;;;;;;10.03;6.73;;;15.20;99.90;;;;;;5113929;28;20289;-48
2023/06/07 03:36:28;;;;;;;13.07;6.03;;;15.20;99.90;;;;;;5115163;28;20603;-48
2023/06/07 03:38:55;;;;;;;12.17;6.27;;;15.10;99.90;;;;;;5115085;28;20205;-49
2023/06/07 03:41:21;;;;;;;11.80;6.13;;;15.10;99.90;;;;;;5115614;28;20185;-48
2023/06/07 03:43:47;;;;;;;12.73;6.53;;;15.00;99.90;;;;;;5114976;28;20202;-49
2023/06/07 03:46:13;;;;;;;17.00;7.50;;;15.00;99.90;;;;;;5114979;28;20634;-49
2023/06/07 03:48:38;;;;;;;9.90;6.43;;;15.00;99.90;;;;;;5114923;28;20178;-49
2023/06/07 03:51:06;;;;;;;17.37;7.03;;;15.00;99.90;;;;;;5115054;28;20178;-49
2023/06/07 03:53:32;;;;;;;11.73;6.60;;;15.00;99.90;;;;;;5115034;28;20228;-48
2023/06/07 03:55:57;;;;;;;16.47;7.27;;;15.00;99.90;;;;;;5114814;28;20224;-50
2023/06/07 03:58:24;;;;;;;16.57;6.40;;;15.00;99.90;;;;;;5115077;28;20186;-48
2023/06/07 04:00:51;;;;;;;11.53;6.47;;;15.00;99.90;;;;;;5114658;28;20190;-49
2023/06/07 04:03:24;;;;;;;11.53;6.47;;;15.00;99.90;;;;;;5114556;28;20777;-47
2023/06/07 04:05:50;;;;;;;12.43;7.00;;;15.00;99.90;;;;;;5114652;28;20154;-47
2023/06/07 04:08:16;;;;;;;14.13;6.53;;;15.00;99.90;;;;;;5114903;28;20540;-48
2023/06/07 04:10:41;;;;;;;14.03;6.83;;;15.00;99.90;;;;;;5114572;28;20178;-49
2023/06/07 04:13:07;;;;;;;16.90;6.70;;;15.00;99.90;;;;;;5114502;28;20674;-48
2023/06/07 04:15:33;;;;;;;12.30;7.23;;;15.00;99.90;;;;;;5114581;28;20190;-49
2023/06/07 04:17:58;;;;;;;16.50;6.40;;;15.00;99.90;;;;;;5114552;28;20198;-50
2023/06/07 04:20:24;;;;;;;15.37;6.90;;;15.10;99.90;;;;;;5114376;28;20554;-48
2023/06/07 04:22:52;;;;;;;15.13;6.50;;;15.10;99.90;;;;;;5114764;28;20178;-49
2023/06/07 04:25:21;;;;;;;12.97;6.77;;;15.00;99.90;;;;;;5114865;28;20255;-49
2023/06/07 04:27:48;;;;;;;15.27;6.37;;;15.00;99.90;;;;;;5114480;28;20193;-48
2023/06/07 04:30:18;;;;;;;10.27;6.27;;;15.00;99.90;;;;;;5112892;28;20238;-48
2023/06/07 04:32:44;;;;;;;11.87;6.80;;;15.00;99.90;;;;;;5114076;28;20669;-49
2023/06/07 04:35:14;;;;;;;16.03;6.77;;;15.00;99.90;;;;;;5114127;28;20197;-49
2023/06/07 04:37:45;;;;;;;12.63;7.30;;;15.00;99.90;;;;;;5114387;28;20201;-48
2023/06/07 04:40:13;;;;;;;19.30;7.07;;;15.00;99.90;;;;;;5114369;28;20233;-47
2023/06/07 04:42:40;;;;;;;18.43;6.53;;;15.00;99.90;;;;;;5114168;28;20174;-49
2023/06/07 04:45:06;;;;;;;16.10;7.27;;;15.00;99.90;;;;;;5114355;28;20212;-49
2023/06/07 04:47:32;;;;;;;19.67;6.73;;;15.00;99.90;;;;;;5114405;28;20303;-49
2023/06/07 04:49:59;;;;;;;25.20;7.43;;;15.00;99.90;;;;;;5114460;28;20177;-49
2023/06/07 04:52:25;;;;;;;20.13;7.53;;;15.00;99.90;;;;;;5114519;28;20174;-48
2023/06/07 04:54:51;;;;;;;15.77;7.10;;;15.00;99.90;;;;;;5114099;28;20539;-48
2023/06/07 04:57:18;;;;;;;15.23;7.03;;;15.10;99.90;;;;;;5114253;28;20268;-49
2023/06/07 04:59:44;;;;;;;20.07;7.07;;;15.10;99.90;;;;;;5113853;28;20198;-48
2023/06/07 05:02:10;;;;;;;13.90;6.60;;;15.10;99.90;;;;;;5113936;28;20166;-50
2023/06/07 05:04:38;;;;;;;15.07;6.40;;;15.10;99.90;;;;;;5113858;28;20194;-48
2023/06/07 05:07:05;;;;;;;11.40;6.37;;;15.20;99.90;;;;;;5113991;28;20539;-50
2023/06/07 05:09:31;;;;;;;19.33;6.30;;;15.20;99.90;;;;;;5113857;28;20657;-49
2023/06/07 05:11:57;;;;;;;17.17;7.07;;;15.20;99.90;;;;;;5113903;28;20174;-48
2023/06/07 05:14:22;;;;;;;12.90;6.50;;;15.20;99.90;;;;;;5113689;28;20277;-48
2023/06/07 05:16:48;;;;;;;13.97;7.10;;;15.20;99.90;;;;;;5113830;28;20174;-50
2023/06/07 05:19:16;;;;;;;17.77;7.67;;;15.20;99.90;;;;;;5113913;28;20192;-50
2023/06/07 05:21:41;;;;;;;12.57;7.60;;;15.30;99.90;;;;;;5113784;28;20631;-48
2023/06/07 05:24:07;;;;;;;14.90;7.57;;;15.30;99.90;;;;;;5113857;28;20289;-50
2023/06/07 05:26:32;;;;;;;15.50;7.40;;;15.30;99.90;;;;;;5114211;28;20507;-49
2023/06/07 05:28:58;;;;;;;17.70;8.07;;;15.40;99.90;;;;;;5113959;28;20642;-49
2023/06/07 05:31:26;;;;;;;12.93;7.17;;;15.40;99.90;;;;;;5112631;28;20186;-49
2023/06/07 05:33:52;;;;;;;9.33;6.50;;;15.40;99.90;;;;;;5113990;28;20230;-50
2023/06/07 05:36:18;;;;;;;17.47;7.40;;;15.40;99.90;;;;;;5114296;28;20200;-48
2023/06/07 05:38:43;;;;;;;15.30;6.93;;;15.40;99.90;;;;;;5113588;28;20269;-49
2023/06/07 05:41:09;;;;;;;17.80;7.40;;;15.40;99.90;;;;;;5113363;28;20232;-49
2023/06/07 05:43:36;;;;;;;13.20;6.67;;;15.40;99.90;;;;;;5113622;28;20677;-48
2023/06/07 05:46:01;;;;;;;18.00;8.10;;;15.40;99.90;;;;;;5113459;28;20710;-50
2023/06/07 05:48:27;;;;;;;12.90;6.90;;;15.50;99.90;;;;;;5113392;28;20201;-50
2023/06/07 05:50:54;;;;;;;16.37;7.80;;;15.50;99.90;;;;;;5113395;28;20206;-48
2023/06/07 05:53:20;;;;;;;13.17;7.13;;;15.60;99.90;;;;;;5113663;28;20255;-48
2023/06/07 05:55:47;;;;;;;15.57;8.50;;;15.60;99.90;;;;;;5113876;28;20171;-48
2023/06/07 05:58:13;;;;;;;18.87;7.90;;;15.60;99.90;;;;;;5112063;28;20182;-49
2023/06/07 06:00:40;;;;;;;11.47;7.20;;;15.70;99.90;;;;;;5113476;28;20212;-48
2023/06/07 06:03:06;;;;;;;12.37;7.50;;;15.70;99.90;;;;;;5113181;28;20166;-49
2023/06/07 06:05:32;;;;;;;13.10;7.47;;;15.70;99.90;;;;;;5113242;28;20179;-49
2023/06/07 06:07:57;;;;;;;15.53;7.77;;;15.80;99.90;;;;;;5112020;28;20265;-48
2023/06/07 06:10:23;;;;;;;18.83;7.77;;;15.80;99.90;;;;;;5113591;28;20175;-48
2023/06/07 06:12:49;;;;;;;19.00;7.40;;;15.80;99.90;;;;;;5114094;28;20527;-50
2023/06/07 06:15:15;;;;;;;13.47;7.40;;;15.90;99.90;;;;;;5113060;28;20222;-47
2023/06/07 06:17:40;;;;;;;13.57;7.97;;;16.00;99.90;;;;;;5117143;28;20174;-48
2023/06/07 06:20:07;;;;;;;15.33;7.50;;;16.00;99.90;;;;;;5116917;28;20597;-49
2023/06/07 06:22:33;;;;;;;18.40;8.20;;;16.10;99.90;;;;;;5116972;28;20220;-48
2023/06/07 06:24:59;;;;;;;13.17;7.60;;;16.20;99.90;;;;;;5116941;28;20194;-48
2023/06/07 06:27:25;;;;;;;15.63;8.13;;;16.30;99.90;;;;;;5116703;28;20170;-49
2023/06/07 06:29:50;;;;;;;10.97;7.50;;;16.30;99.90;;;;;;5116557;28;20186;-47
2023/06/07 06:32:16;;;;;;;15.90;8.10;;;16.30;99.90;;;;;;5116644;28;20178;-49
2023/06/07 06:34:41;;;;;;;11.77;7.13;;;16.40;99.90;;;;;;5116605;28;20658;-48
2023/06/07 06:37:07;;;;;;;13.63;7.67;;;16.40;99.90;;;;;;5116491;28;20266;-48
2023/06/07 06:39:33;;;;;;;13.87;7.97;;;16.50;99.90;;;;;;5116808;28;20275;-48
2023/06/07 06:41:58;;;;;;;20.10;8.70;;;16.50;99.90;;;;;;5116595;28;20633;-49
2023/06/07 06:44:24;;;;;;;15.43;8.10;;;16.60;99.90;;;;;;5116329;28;20197;-48
2023/06/07 06:46:49;;;;;;;12.83;7.80;;;16.50;99.90;;;;;;5116326;28;20166;-50
2023/06/07 06:49:15;;;;;;;11.80;8.07;;;16.60;99.90;;;;;;5116250;28;20219;-49
2023/06/07 06:51:41;;;;;;;16.77;8.37;;;16.60;99.90;;;;;;5116212;28;20647;-49
2023/06/07 06:54:06;;;;;;;12.73;7.87;;;16.60;99.90;;;;;;5116393;28;20198;-48
2023/06/07 06:56:33;;;;;;;13.70;7.50;;;16.60;99.90;;;;;;5116420;28;20182;-48
2023/06/07 06:58:59;;;;;;;13.97;7.27;;;16.60;99.90;;;;;;5116055;28;20181;-50
2023/06/07 07:01:41;;;;;;;14.93;8.23;;;16.70;99.90;;;;;;5115907;28;20214;-50
2023/06/07 07:04:06;;;;;;;23.20;8.60;;;16.70;99.90;;;;;;5116206;28;20232;-49
2023/06/07 07:06:32;;;;;;;16.03;8.30;;;16.80;99.90;;;;;;5116000;28;20548;-49
2023/06/07 07:08:57;;;;;;;15.23;8.43;;;16.70;99.90;;;;;;5116142;28;20178;-49
2023/06/07 07:11:23;;;;;;;17.97;8.07;;;16.70;99.90;;;;;;5116061;28;20223;-49
2023/06/07 07:13:48;;;;;;;14.83;8.40;;;16.80;99.90;;;;;;5115760;28;20247;-49
2023/06/07 07:16:16;;;;;;;15.70;8.10;;;16.80;99.90;;;;;;5115932;28;20178;-49
2023/06/07 07:18:42;;;;;;;10.63;7.03;;;16.80;99.90;;;;;;5116297;28;20255;-50
2023/06/07 07:21:07;;;;;;;14.73;8.63;;;16.80;99.90;;;;;;5116770;28;20230;-49
2023/06/07 07:23:33;;;;;;;13.73;8.00;;;16.80;99.90;;;;;;5116239;28;20205;-49
2023/06/07 07:25:58;;;;;;;14.37;7.97;;;16.90;99.90;;;;;;5115141;28;20178;-48
2023/06/07 07:28:24;;;;;;;13.87;8.23;;;16.80;99.90;;;;;;5115507;28;20177;-48
2023/06/07 07:30:49;;;;;;;15.60;8.23;;;16.80;99.90;;;;;;5115519;28;20178;-50
2023/06/07 07:33:15;;;;;;;15.90;8.00;;;16.90;99.90;;;;;;5115458;28;20241;-50
2023/06/07 07:35:41;;;;;;;10.57;7.63;;;16.80;99.90;;;;;;5115360;28;20203;-49
2023/06/07 07:38:06;;;;;;;17.03;7.60;;;16.70;99.90;;;;;;5115367;28;20205;-49
2023/06/07 07:40:32;;;;;;;16.50;8.10;;;16.70;99.90;;;;;;5115129;28;20271;-48
2023/06/07 07:42:58;;;;;;;15.47;8.53;;;16.70;99.90;;;;;;5115056;28;20174;-50
2023/06/07 07:45:24;;;;;;;14.07;8.33;;;16.70;99.90;;;;;;5115199;28;20534;-50
2023/06/07 07:47:50;;;;;;;13.90;8.10;;;16.70;99.90;;;;;;5115290;28;20175;-49
2023/06/07 07:50:16;;;;;;;14.57;8.67;;;16.70;99.90;;;;;;5115025;28;20182;-48
2023/06/07 07:52:42;;;;;;;21.13;9.13;;;16.70;99.90;;;;;;5115014;28;20182;-50
2023/06/07 07:55:07;;;;;;;15.13;8.67;;;16.70;99.90;;;;;;5114731;28;20254;-50
2023/06/07 07:57:33;;;;;;;16.33;9.50;;;16.80;99.90;;;;;;5115020;28;20185;-49
2023/06/07 07:59:59;;;;;;;16.50;8.43;;;16.80;99.90;;;;;;5114792;28;20592;-51
2023/06/07 08:02:24;;;;;;;17.07;9.57;;;16.90;99.90;;;;;;5114663;28;20270;-49
2023/06/07 08:04:50;;;;;;;13.97;8.50;;;16.90;99.90;;;;;;5114825;28;20206;-49
2023/06/07 08:07:15;;;;;;;19.03;9.07;;;16.90;99.90;;;;;;5114904;28;20185;-50
2023/06/07 08:09:41;;;;;;;15.13;9.23;;;17.00;99.90;;;;;;5114587;28;20206;-49
2023/06/07 08:12:08;;;;;;;17.43;8.20;;;17.10;99.90;;;;;;5114516;28;20182;-50
2023/06/07 08:14:34;;;;;;;14.03;9.13;;;17.20;99.90;;;;;;5114621;28;20251;-49
2023/06/07 08:16:59;;;;;;;12.40;8.37;;;17.20;99.90;;;;;;5114439;28;20182;-50
2023/06/07 08:19:26;;;;;;;16.50;8.73;;;17.20;99.90;;;;;;5114553;28;20576;-50
2023/06/07 08:21:52;;;;;;;16.83;9.03;;;17.30;99.90;;;;;;5114659;28;20612;-49
2023/06/07 08:24:17;;;;;;;15.10;8.07;;;17.30;99.90;;;;;;5114423;28;20198;-49
2023/06/07 08:26:47;;;;;;;16.57;8.50;;;17.40;99.90;;;;;;5114252;28;20166;-49
2023/06/07 08:29:12;;;;;;;17.10;8.80;;;17.50;99.90;;;;;;5114475;28;20269;-50
2023/06/07 08:31:41;;;;;;;13.90;8.50;;;17.50;99.90;;;;;;5114480;28;20265;-48
2023/06/07 08:34:07;;;;;;;14.80;8.80;;;17.50;99.90;;;;;;5114655;28;20201;-49
2023/06/07 08:36:32;;;;;;;15.87;9.30;;;17.50;99.90;;;;;;5113986;28;20178;-50
2023/06/07 08:38:58;;;;;;;17.20;9.20;;;17.50;99.90;;;;;;5113540;28;20178;-50
2023/06/07 08:41:23;;;;;;;15.13;9.20;;;17.50;99.90;;;;;;5114238;28;20672;-49
2023/06/07 08:43:49;;;;;;;16.33;8.83;;;17.40;99.90;;;;;;5114148;28;20568;-50
2023/06/07 08:46:16;;;;;;;13.00;8.20;;;17.50;99.90;;;;;;5113969;28;20204;-50
2023/06/07 08:48:42;;;;;;;21.33;9.03;;;17.50;99.90;;;;;;5114402;28;20662;-50
2023/06/07 08:51:09;;;;;;;16.73;9.53;;;17.50;99.90;;;;;;5114480;28;20619;-49
2023/06/07 08:53:47;;;;;;;20.40;9.10;;;17.50;99.90;;;;;;5114606;28;20289;-50
2023/06/07 08:56:13;;;;;;;17.23;8.63;;;17.50;99.90;;;;;;5115145;28;20208;-50
2023/06/07 08:58:39;;;;;;;13.57;8.93;;;17.50;99.90;;;;;;5114435;28;20235;-49
2023/06/07 09:01:07;;;;;;;17.47;9.17;;;17.50;99.90;;;;;;5114401;28;20202;-49
2023/06/07 09:03:33;;;;;;;15.60;8.57;;;17.50;99.90;;;;;;5115933;28;20225;-43
2023/06/07 09:06:00;;;;;;;17.10;9.60;;;17.50;99.90;;;;;;5116104;28;20657;-43
2023/06/07 09:08:26;;;;;;;14.50;9.13;;;17.50;99.90;;;;;;5114998;28;20243;-42
2023/06/07 09:10:51;;;;;;;21.37;9.73;;;17.50;99.90;;;;;;5112921;28;20185;-44
2023/06/07 09:13:21;;;;;;;15.20;9.30;;;17.60;99.90;;;;;;5114159;28;20194;-42
2023/06/07 09:15:52;;;;;;;13.57;8.47;;;17.60;99.90;;;;;;5114007;28;20281;-43
2023/06/07 09:18:18;;;;;;;14.87;9.90;;;17.60;99.90;;;;;;5113706;28;20654;-41
2023/06/07 09:20:43;;;;;;;13.73;8.73;;;17.60;99.90;;;;;;5113639;28;20201;-43
2023/06/07 09:23:14;;;;;;;16.57;8.57;;;17.60;99.90;;;;;;5112276;28;20179;-42
2023/06/07 09:25:44;;;;;;;16.57;10.00;;;17.50;99.90;;;;;;5113881;28;20166;-43
2023/06/07 09:28:11;;;;;;;13.53;8.97;;;17.50;99.90;;;;;;5113773;28;20186;-43
2023/06/07 09:30:51;;;;;;;14.30;9.13;;;17.50;99.90;;;;;;5113821;28;20183;-43
2023/06/07 09:33:28;;;;;;;15.97;9.13;;;17.40;99.90;;;;;;5113939;28;20610;-42
2023/06/07 09:36:08;;;;;;;19.03;9.33;;;17.40;99.90;;;;;;5113781;28;20232;-41
2023/06/07 09:38:35;;;;;;;16.47;8.80;;;17.30;99.90;;;;;;5113362;28;20273;-43
2023/06/07 09:41:02;;;;;;;14.33;8.83;;;17.40;99.90;;;;;;5113671;28;20198;-42
2023/06/07 09:43:50;;;;;;;20.80;9.20;;;17.40;99.90;;;;;;5113406;28;20280;-43
2023/06/07 09:46:17;;;;;;;15.73;8.20;;;17.40;99.90;;;;;;5114108;28;20188;-44
2023/06/07 09:48:53;;;;;;;13.57;8.63;;;17.40;99.90;;;;;;5115845;28;20585;-44
2023/06/07 09:51:20;;;;;;;16.50;9.10;;;17.40;99.90;;;;;;5119948;28;20263;-44
2023/06/07 09:54:01;;;;;;;19.23;9.67;;;17.60;99.90;;;;;;5117768;28;20705;-43
2023/06/07 09:56:27;;;;;;;18.17;8.43;;;17.70;99.90;;;;;;5119654;28;20170;-42
2023/06/07 09:59:07;;;;;;;16.70;9.30;;;17.70;99.90;;;;;;5117517;28;20527;-44
2023/06/07 10:01:45;;;;;;;15.40;9.17;;;17.70;99.90;;;;;;5117198;28;20212;-43
2023/06/07 10:04:11;;;;;;;14.20;9.03;;;17.70;99.90;;;;;;5117123;28;20198;-42
2023/06/07 10:06:44;;;;;;;15.30;8.93;;;17.60;99.90;;;;;;5117214;28;20283;-43
2023/06/07 10:09:11;;;;;;;18.30;8.77;;;17.60;99.90;;;;;;5117410;28;20155;-43
2023/06/07 10:11:38;;;;;;;15.73;8.87;;;17.50;99.90;;;;;;5118461;28;20554;-42
2023/06/07 10:14:10;;;;;;;18.40;8.80;;;17.40;99.90;;;;;;5116979;28;20662;-44
2023/06/07 10:16:38;;;;;;;18.70;9.27;;;17.40;99.90;;;;;;5117843;28;20209;-43
2023/06/07 10:19:13;;;;;;;16.77;8.43;;;17.40;99.90;;;;;;5116806;28;20178;-42
2023/06/07 10:21:42;;;;;;;14.53;9.43;;;17.40;99.90;;;;;;5117085;28;20203;-43
2023/06/07 10:24:12;;;;;;;14.87;8.30;;;17.40;99.90;;;;;;5116704;28;20209;-43
2023/06/07 10:26:54;;;;;;;18.67;9.70;;;17.40;99.90;;;;;;5117042;28;20572;-43
2023/06/07 10:29:53;;;;;;;15.33;9.33;;;17.30;99.90;;;;;;5117227;28;20166;-42
2023/06/07 10:32:26;;;;;;;17.20;8.80;;;17.20;99.90;;;;;;5117126;28;20162;-43
2023/06/07 10:34:54;;;;;;;18.23;9.70;;;17.20;99.90;;;;;;5117081;28;20194;-46
2023/06/07 10:37:20;;;;;;;16.93;9.37;;;17.10;99.90;;;;;;5116876;27;20297;-42
2023/06/07 10:39:46;;;;;;;17.17;9.17;;;17.00;99.90;;;;;;5117227;28;20718;-45
2023/06/07 10:42:13;;;;;;;18.43;9.60;;;17.00;99.90;;;;;;5116883;28;20185;-42
2023/06/07 10:44:39;;;;;;;16.77;9.80;;;16.90;99.90;;;;;;5116569;28;20186;-42
2023/06/07 10:47:25;;;;;;;18.03;9.30;;;16.80;99.90;;;;;;5116203;28;20182;-43
2023/06/07 10:49:51;;;;;;;17.47;9.17;;;16.70;99.90;;;;;;5116425;28;20186;-41
2023/06/07 10:52:16;;;;;;;18.40;9.73;;;16.70;99.90;;;;;;5116347;28;20178;-43
2023/06/07 10:54:44;;;;;;;19.27;10.30;;;16.60;99.90;;;;;;5116324;28;20231;-43
2023/06/07 10:57:10;;;;;;;15.07;9.20;;;16.40;99.90;;;;;;5116323;28;20193;-43
2023/06/07 10:59:37;;;;;;;15.40;9.87;;;16.40;99.90;;;;;;5115979;28;20202;-43
2023/06/07 11:02:24;;;;;;;13.83;9.37;;;16.30;99.90;;;;;;5115479;28;20186;-43
2023/06/07 11:04:51;;;;;;;18.90;10.93;;;16.30;99.90;;;;;;5116167;28;20205;-42
2023/06/07 11:07:22;;;;;;;19.03;8.77;;;16.30;99.90;;;;;;5115849;28;20181;-42
2023/06/07 11:09:49;;;;;;;15.40;9.60;;;16.40;99.90;;;;;;5116129;28;20201;-42
2023/06/07 11:12:40;;;;;;;18.43;10.10;;;16.40;99.90;;;;;;5115859;28;20650;-42
2023/06/07 11:15:21;;;;;;;16.30;10.23;;;16.40;99.90;;;;;;5114383;28;20237;-42
2023/06/07 11:18:00;;;;;;;14.80;8.77;;;16.40;99.90;;;;;;5114940;28;20186;-43
2023/06/07 11:20:43;;;;;;;13.53;9.10;;;16.40;99.90;;;;;;5115490;28;20293;-44
2023/06/07 11:23:19;;;;;;;17.90;10.27;;;16.40;99.90;;;;;;5115799;28;20576;-42
2023/06/07 11:25:45;;;;;;;14.10;8.80;;;16.40;99.90;;;;;;5115816;28;20208;-43
2023/06/07 11:28:11;;;;;;;15.73;9.60;;;16.40;99.90;;;;;;5115715;28;20197;-44
2023/06/07 11:30:38;;;;;;;19.40;9.33;;;16.50;99.90;;;;;;5115365;28;20181;-43
2023/06/07 11:33:03;;;;;;;15.77;9.87;;;16.50;99.90;;;;;;5115643;28;20223;-42
2023/06/07 11:35:32;;;;;;;17.47;9.13;;;16.50;99.90;;;;;;5115278;28;20174;-42
2023/06/07 11:38:04;;;;;;;15.40;9.50;;;16.60;99.90;;;;;;5115171;28;20198;-43
2023/06/07 11:40:29;;;;;;;14.27;9.67;;;16.60;99.90;;;;;;5115424;28;20662;-43
2023/06/07 11:42:55;;;;;;;16.37;9.40;;;16.50;99.90;;;;;;5114974;28;20231;-46
2023/06/07 11:45:21;;;;;;;13.50;9.33;;;16.50;99.90;;;;;;5115029;28;20178;-44
2023/06/07 11:47:50;;;;;;;14.10;8.83;;;16.60;99.90;;;;;;5115030;28;20260;-43
2023/06/07 11:50:16;;;;;;;16.27;10.17;;;16.60;99.90;;;;;;5115106;28;20181;-44
2023/06/07 11:52:42;;;;;;;16.00;10.80;;;16.60;99.90;;;;;;5114892;28;20674;-44
2023/06/07 11:55:08;;;;;;;18.80;10.30;;;16.70;99.90;;;;;;5114860;28;20275;-43
2023/06/07 11:57:38;;;;;;;16.30;11.00;;;16.70;99.90;;;;;;5114880;28;20545;-43
2023/06/07 12:00:12;;;;;;;13.77;9.67;;;16.70;99.90;;;;;;5114868;28;20194;-43
2023/06/07 12:02:40;;;;;;;16.67;11.33;;;16.80;99.90;;;;;;5115355;28;20211;-43
2023/06/07 12:05:09;;;;;;;14.37;9.00;;;16.90;99.90;;;;;;5114947;28;20221;-44
2023/06/07 12:07:35;;;;;;;18.50;10.30;;;17.00;99.90;;;;;;5114722;28;20545;-43
2023/06/07 12:10:05;;;;;;;17.90;10.77;;;17.10;99.90;;;;;;5114949;28;20189;-42
2023/06/07 12:12:31;;;;;;;17.17;11.20;;;17.20;99.90;;;;;;5114535;28;20180;-42
2023/06/07 12:15:00;;;;;;;13.90;9.87;;;17.30;99.90;;;;;;5114515;28;20297;-42
2023/06/07 12:17:34;;;;;;;17.07;11.37;;;17.50;99.90;;;;;;5114984;28;20188;-43
2023/06/07 12:20:14;;;;;;;17.83;12.03;;;17.50;99.90;;;;;;5113330;28;20288;-42
2023/06/07 12:22:40;;;;;;;16.47;10.50;;;17.70;99.90;;;;;;5114738;28;20166;-42
2023/06/07 12:25:15;;;;;;;13.93;10.27;;;17.80;99.90;;;;;;5114293;28;20190;-43
2023/06/07 12:27:45;;;;;;;15.80;10.83;;;18.00;99.90;;;;;;5114690;28;20161;-44
2023/06/07 12:30:11;;;;;;;14.73;9.57;;;18.30;99.90;;;;;;5114636;28;20169;-43
2023/06/07 12:32:37;;;;;;;18.20;10.13;;;18.60;99.90;;;;;;5114382;28;20178;-43
2023/06/07 12:35:05;;;;;;;14.33;9.30;;;18.70;99.90;;;;;;5114508;28;20234;-44
2023/06/07 12:37:37;;;;;;;13.13;9.73;;;18.90;99.90;;;;;;5114122;28;20314;-44